Time;durP1;ratioP1;P1;durP2;ratioP2;P2;SDS_P1;SDS_P2;PMS_P1;PMS_P2;Temp;Humidity;BMP_temperature;BMP_pressure;BME280_temperature;BME280_humidity;BME280_pressure;Samples;Min_cycle;Max_cycle;Signal;HPM_P1;HPM_P2
2022/04/27 00:00:30;;;;;;;4.80;3.60;;;6.50;99.90;;;;;;5030718;28;20080;-50
2022/04/27 00:02:56;;;;;;;9.05;4.28;;;6.40;99.90;;;;;;5031497;28;20034;-49
2022/04/27 00:05:23;;;;;;;6.28;4.32;;;6.40;99.90;;;;;;5048195;28;20528;-51
2022/04/27 00:07:48;;;;;;;4.35;3.70;;;6.40;99.90;;;;;;5032591;28;20661;-50
2022/04/27 00:10:14;;;;;;;5.95;3.97;;;6.40;99.90;;;;;;5030843;28;20028;-50
2022/04/27 00:12:41;;;;;;;8.43;4.65;;;6.30;99.90;;;;;;5017366;28;20029;-51
2022/04/27 00:15:07;;;;;;;7.90;4.20;;;6.30;99.90;;;;;;5050335;28;20021;-51
2022/04/27 00:17:36;;;;;;;7.90;4.05;;;6.20;99.90;;;;;;5050008;28;20392;-51
2022/04/27 00:20:02;;;;;;;6.15;4.18;;;6.20;99.90;;;;;;5050505;28;20025;-52
2022/04/27 00:22:28;;;;;;;8.82;4.30;;;6.20;99.90;;;;;;5023617;28;20028;-49
2022/04/27 00:24:53;;;;;;;4.93;4.35;;;6.10;99.90;;;;;;5049817;28;20113;-52
2022/04/27 00:27:19;;;;;;;5.65;4.03;;;6.10;99.90;;;;;;5042501;28;20025;-48
2022/04/27 00:29:44;;;;;;;8.10;4.30;;;6.10;99.90;;;;;;5043024;28;20028;-50
2022/04/27 00:32:10;;;;;;;4.22;3.83;;;6.10;99.90;;;;;;5049301;28;20056;-51
2022/04/27 00:34:35;;;;;;;5.38;4.18;;;6.00;99.90;;;;;;5048179;28;20060;-49
2022/04/27 00:37:01;;;;;;;5.03;4.25;;;6.10;99.90;;;;;;5047291;28;20396;-52
2022/04/27 00:39:27;;;;;;;7.38;4.45;;;6.00;99.90;;;;;;5048094;28;20112;-52
2022/04/27 00:42:02;;;;;;;6.43;3.80;;;6.00;99.90;;;;;;5037405;28;20029;-49
2022/04/27 00:44:28;;;;;;;7.20;3.58;;;6.00;99.90;;;;;;5034359;28;20013;-51
2022/04/27 00:46:54;;;;;;;7.97;3.92;;;6.00;99.90;;;;;;5050072;28;20029;-51
2022/04/27 00:49:20;;;;;;;5.88;3.67;;;6.00;99.90;;;;;;5047644;28;20075;-50
2022/04/27 00:51:46;;;;;;;5.80;3.90;;;6.00;99.90;;;;;;5029255;28;20029;-50
2022/04/27 00:54:13;;;;;;;6.13;4.35;;;6.00;99.90;;;;;;5044489;28;20140;-51
2022/04/27 00:56:40;;;;;;;9.48;4.75;;;5.90;99.90;;;;;;5044483;28;20033;-50
2022/04/27 00:59:05;;;;;;;6.28;4.55;;;5.90;99.90;;;;;;5026298;28;20057;-52
2022/04/27 01:01:32;;;;;;;6.35;4.28;;;5.90;99.90;;;;;;5028228;28;20087;-50
2022/04/27 01:03:58;;;;;;;7.47;4.22;;;5.90;99.90;;;;;;5040296;28;20074;-52
2022/04/27 01:06:24;;;;;;;8.07;3.90;;;5.90;99.90;;;;;;5046272;28;20032;-50
2022/04/27 01:08:50;;;;;;;6.55;4.00;;;5.90;99.90;;;;;;5028817;28;20160;-50
2022/04/27 01:11:16;;;;;;;6.20;4.00;;;5.90;99.90;;;;;;5029377;28;20064;-52
2022/04/27 01:13:41;;;;;;;9.43;4.40;;;5.80;99.90;;;;;;5042123;28;20052;-49
2022/04/27 01:16:07;;;;;;;8.68;4.25;;;5.80;99.90;;;;;;5045417;28;20025;-49
2022/04/27 01:18:33;;;;;;;7.68;4.90;;;5.80;99.90;;;;;;5029531;28;20051;-50
2022/04/27 01:20:59;;;;;;;7.95;4.68;;;5.70;99.90;;;;;;5029298;28;20041;-52
2022/04/27 01:23:25;;;;;;;10.38;4.30;;;5.70;99.90;;;;;;5029038;28;20053;-50
2022/04/27 01:25:57;;;;;;;5.45;4.00;;;5.70;99.90;;;;;;5031966;28;20061;-51
2022/04/27 01:28:31;;;;;;;8.05;4.60;;;5.60;99.90;;;;;;5048560;28;20100;-53
2022/04/27 01:31:04;;;;;;;9.80;4.40;;;5.60;99.90;;;;;;5049025;28;20021;-49
2022/04/27 01:33:31;;;;;;;8.13;4.47;;;5.60;99.90;;;;;;5047092;28;20055;-52
2022/04/27 01:35:58;;;;;;;8.85;4.70;;;5.50;99.90;;;;;;5047504;28;20025;-49
2022/04/27 01:38:24;;;;;;;5.22;4.35;;;5.50;99.90;;;;;;5029089;28;20033;-50
2022/04/27 01:40:54;;;;;;;13.20;4.78;;;5.50;99.90;;;;;;5029285;28;20025;-48
2022/04/27 01:43:24;;;;;;;8.80;4.80;;;5.50;99.90;;;;;;5028661;28;20029;-50
2022/04/27 01:45:50;;;;;;;4.90;4.10;;;5.50;99.90;;;;;;5012316;28;20030;-50
2022/04/27 01:48:16;;;;;;;8.57;4.47;;;5.50;99.90;;;;;;5048201;28;20051;-50
2022/04/27 01:50:42;;;;;;;6.78;4.10;;;5.50;99.90;;;;;;5047386;28;20112;-49
2022/04/27 01:55:51;;;;;;;11.27;4.88;;;5.50;99.90;;;;;;5026828;28;20045;-49
2022/04/27 01:58:18;;;;;;;8.93;4.80;;;5.50;99.90;;;;;;5037116;28;20416;-50
2022/04/27 02:00:46;;;;;;;7.68;5.00;;;5.40;99.90;;;;;;5029318;28;20037;-48
2022/04/27 02:03:13;;;;;;;9.38;5.55;;;5.50;99.90;;;;;;5048257;28;20032;-48
2022/04/27 02:05:39;;;;;;;12.35;5.65;;;5.50;99.90;;;;;;5037161;28;20033;-50
2022/04/27 02:08:05;;;;;;;7.50;5.25;;;5.50;99.90;;;;;;5034655;28;20543;-50
2022/04/27 02:10:30;;;;;;;12.65;5.43;;;5.30;99.90;;;;;;5039291;28;20056;-50
2022/04/27 02:12:56;;;;;;;8.07;4.50;;;5.30;99.90;;;;;;5038721;28;20062;-52
2022/04/27 02:15:21;;;;;;;11.00;4.90;;;5.30;99.90;;;;;;5028831;28;20033;-51
2022/04/27 02:17:48;;;;;;;6.85;4.13;;;5.20;99.90;;;;;;5038786;28;20082;-49
2022/04/27 02:20:14;;;;;;;5.00;4.40;;;5.20;99.90;;;;;;5051756;28;20021;-51
2022/04/27 02:22:40;;;;;;;5.30;4.57;;;5.30;99.90;;;;;;5051573;28;20052;-49
2022/04/27 02:25:06;;;;;;;9.43;5.85;;;5.30;99.90;;;;;;5042625;28;20116;-50
2022/04/27 02:27:33;;;;;;;5.97;4.45;;;5.20;99.90;;;;;;5032563;28;20040;-50
2022/04/27 02:29:59;;;;;;;7.40;4.97;;;5.20;99.90;;;;;;5048537;28;20029;-52
2022/04/27 02:32:24;;;;;;;8.05;4.93;;;5.10;99.90;;;;;;5051953;28;20112;-51
2022/04/27 02:34:51;;;;;;;5.93;4.72;;;5.20;99.90;;;;;;5045169;28;20037;-51
2022/04/27 02:37:17;;;;;;;5.53;3.78;;;5.10;99.90;;;;;;5032177;28;20037;-50
2022/04/27 02:39:42;;;;;;;8.65;5.03;;;5.10;99.90;;;;;;5014750;28;20057;-48
2022/04/27 02:42:08;;;;;;;8.50;4.78;;;5.10;99.90;;;;;;5031994;28;20065;-50
2022/04/27 02:44:33;;;;;;;5.53;4.50;;;5.10;99.90;;;;;;5047061;28;20116;-50
2022/04/27 02:46:59;;;;;;;8.35;5.32;;;5.10;99.90;;;;;;5032474;28;20029;-49
2022/04/27 02:52:08;;;;;;;5.15;4.40;;;5.10;99.90;;;;;;5031888;28;20698;-49
2022/04/27 02:54:34;;;;;;;6.57;4.82;;;5.10;99.90;;;;;;5035459;28;20029;-50
2022/04/27 02:57:00;;;;;;;6.78;3.92;;;5.00;99.90;;;;;;5034157;28;20057;-53
2022/04/27 02:59:25;;;;;;;11.43;4.60;;;5.00;99.90;;;;;;5049749;28;20479;-51
2022/04/27 03:01:51;;;;;;;7.65;4.10;;;5.00;99.90;;;;;;5034798;28;20113;-51
2022/04/27 03:04:16;;;;;;;9.55;4.10;;;5.00;99.90;;;;;;5033052;28;20037;-49
2022/04/27 03:06:42;;;;;;;12.32;4.63;;;5.00;99.90;;;;;;5013143;28;20047;-48
2022/04/27 03:09:07;;;;;;;8.32;4.63;;;4.90;99.90;;;;;;5031624;28;20120;-52
2022/04/27 03:11:33;;;;;;;6.70;4.05;;;4.90;99.90;;;;;;5046973;28;20032;-54
2022/04/27 03:13:58;;;;;;;14.52;5.68;;;4.90;99.90;;;;;;5031531;28;20029;-50
2022/04/27 03:16:24;;;;;;;6.82;4.43;;;4.80;99.90;;;;;;5030857;28;20088;-52
2022/04/27 03:18:50;;;;;;;10.00;4.95;;;4.80;99.90;;;;;;5038101;28;20052;-50
2022/04/27 03:21:15;;;;;;;4.07;3.67;;;4.80;99.90;;;;;;5050833;28;20028;-52
2022/04/27 03:23:41;;;;;;;5.68;4.13;;;4.70;99.90;;;;;;5033316;28;20584;-49
2022/04/27 03:26:07;;;;;;;5.18;4.68;;;4.70;99.90;;;;;;5022339;28;20076;-54
2022/04/27 03:28:33;;;;;;;7.63;4.32;;;4.70;99.90;;;;;;5046084;28;20029;-50
2022/04/27 03:30:58;;;;;;;6.03;4.38;;;4.70;99.90;;;;;;5031574;28;20128;-48
2022/04/27 03:33:24;;;;;;;9.50;4.95;;;4.70;99.90;;;;;;5033402;28;20078;-49
2022/04/27 03:35:50;;;;;;;8.93;4.72;;;4.70;99.90;;;;;;5050774;28;20401;-49
2022/04/27 03:38:18;;;;;;;5.78;4.45;;;4.70;99.90;;;;;;5049575;28;20583;-48
2022/04/27 03:40:44;;;;;;;7.57;4.43;;;4.70;99.90;;;;;;5050871;28;20047;-51
2022/04/27 03:43:09;;;;;;;6.82;4.70;;;4.70;99.90;;;;;;5050397;28;20117;-52
2022/04/27 03:45:35;;;;;;;15.45;5.68;;;4.70;99.90;;;;;;5051016;28;20486;-49
2022/04/27 03:48:02;;;;;;;6.05;4.97;;;4.70;99.90;;;;;;5050783;28;20033;-51
2022/04/27 03:50:28;;;;;;;7.70;5.15;;;4.70;99.90;;;;;;5049970;28;20033;-51
2022/04/27 03:52:53;;;;;;;10.43;5.55;;;4.60;99.90;;;;;;5050057;28;20062;-50
2022/04/27 03:55:19;;;;;;;7.03;4.90;;;4.60;99.90;;;;;;5032683;28;20053;-49
2022/04/27 03:57:45;;;;;;;6.18;4.95;;;4.50;99.90;;;;;;5050340;28;20604;-49
2022/04/27 04:00:11;;;;;;;11.88;5.82;;;4.60;99.90;;;;;;5037706;28;20128;-50
2022/04/27 04:02:37;;;;;;;5.72;4.97;;;4.60;99.90;;;;;;5040211;28;20033;-49
2022/04/27 04:05:06;;;;;;;12.98;5.60;;;4.60;99.90;;;;;;5049001;28;20029;-50
2022/04/27 04:07:32;;;;;;;7.28;5.20;;;4.60;99.90;;;;;;5050617;28;20178;-48
2022/04/27 04:09:58;;;;;;;7.32;5.60;;;4.60;99.90;;;;;;5035473;28;20033;-50
2022/04/27 04:12:24;;;;;;;8.13;5.30;;;4.60;99.90;;;;;;5045367;28;20038;-49
2022/04/27 04:14:50;;;;;;;6.07;4.88;;;4.60;99.90;;;;;;5040358;28;20044;-50
2022/04/27 04:17:16;;;;;;;4.88;4.47;;;4.60;99.90;;;;;;5049818;28;20025;-50
2022/04/27 04:19:41;;;;;;;8.73;5.80;;;4.60;99.90;;;;;;5037338;28;20025;-48
2022/04/27 04:22:08;;;;;;;6.57;5.10;;;4.70;99.90;;;;;;5030532;28;20712;-51
2022/04/27 04:24:34;;;;;;;12.68;6.03;;;4.70;99.90;;;;;;5012987;28;20041;-50
2022/04/27 04:29:43;;;;;;;10.50;5.97;;;4.70;99.90;;;;;;5037270;28;20056;-50
2022/04/27 04:32:09;;;;;;;7.85;5.22;;;4.70;99.90;;;;;;5029947;28;20486;-49
2022/04/27 04:34:34;;;;;;;10.23;6.30;;;4.60;99.90;;;;;;5029642;28;20025;-52
2022/04/27 04:37:01;;;;;;;11.88;5.40;;;4.70;99.90;;;;;;5011516;28;20030;-50
2022/04/27 04:39:27;;;;;;;9.75;5.72;;;4.70;99.90;;;;;;5038855;28;20496;-48
2022/04/27 04:41:53;;;;;;;9.15;5.65;;;4.70;99.90;;;;;;5049455;28;20072;-50
2022/04/27 04:44:18;;;;;;;9.57;6.00;;;4.80;99.90;;;;;;5048222;28;20036;-50
2022/04/27 04:46:45;;;;;;;10.18;6.30;;;4.80;99.90;;;;;;5049388;28;20673;-49
2022/04/27 04:49:11;;;;;;;8.60;5.03;;;4.80;99.90;;;;;;5042429;28;20099;-51
2022/04/27 04:51:36;;;;;;;9.70;6.22;;;4.80;99.90;;;;;;5029747;28;20025;-50
2022/04/27 04:54:03;;;;;;;13.13;6.43;;;4.80;99.90;;;;;;5029603;28;20390;-49
2022/04/27 04:56:29;;;;;;;8.60;5.93;;;4.90;99.90;;;;;;5029777;28;20108;-52
2022/04/27 04:58:54;;;;;;;8.57;5.60;;;4.90;99.90;;;;;;5030580;28;20580;-49
2022/04/27 05:01:20;;;;;;;13.60;6.32;;;4.90;99.90;;;;;;5029534;28;20041;-48
2022/04/27 05:03:45;;;;;;;8.95;5.68;;;4.90;99.90;;;;;;5039189;28;20404;-54
2022/04/27 05:06:11;;;;;;;7.15;6.38;;;5.00;99.90;;;;;;5032179;28;20030;-50
2022/04/27 05:08:37;;;;;;;9.63;5.70;;;5.00;99.90;;;;;;5039558;28;20659;-52
2022/04/27 05:11:03;;;;;;;9.07;6.63;;;5.10;99.90;;;;;;5036477;28;20030;-49
2022/04/27 05:13:28;;;;;;;11.45;6.32;;;5.10;99.90;;;;;;5029072;28;20048;-51
2022/04/27 05:15:54;;;;;;;10.27;5.75;;;5.20;99.90;;;;;;5029977;28;20053;-51
2022/04/27 05:18:19;;;;;;;6.78;5.43;;;5.30;99.90;;;;;;5029501;28;20052;-52
2022/04/27 05:20:45;;;;;;;11.75;6.60;;;5.30;99.90;;;;;;5029513;28;20097;-49
2022/04/27 05:23:14;;;;;;;10.95;6.60;;;5.40;99.90;;;;;;5030456;28;20422;-50
2022/04/27 05:25:40;;;;;;;10.30;6.10;;;5.50;99.90;;;;;;5044380;28;20080;-49
2022/04/27 05:28:06;;;;;;;12.35;5.82;;;5.50;99.90;;;;;;5034422;28;20036;-50
2022/04/27 05:33:23;;;;;;;15.00;5.88;;;5.70;99.90;;;;;;5041172;28;20040;-53
2022/04/27 05:35:49;;;;;;;12.13;5.85;;;5.70;99.90;;;;;;5029556;28;20026;-53
2022/04/27 05:38:14;;;;;;;9.65;5.43;;;5.70;99.90;;;;;;5034742;28;20029;-51
2022/04/27 05:40:41;;;;;;;13.07;6.03;;;5.80;99.90;;;;;;5048936;28;20680;-50
2022/04/27 05:43:07;;;;;;;9.25;5.57;;;5.90;99.90;;;;;;5048580;28;20036;-52
2022/04/27 05:45:33;;;;;;;7.35;4.95;;;6.00;99.90;;;;;;5049190;28;20065;-51
2022/04/27 05:47:59;;;;;;;10.77;6.07;;;6.10;99.90;;;;;;5045368;28;20021;-50
2022/04/27 05:50:25;;;;;;;12.23;5.72;;;6.20;99.90;;;;;;5029688;28;20075;-51
2022/04/27 05:52:53;;;;;;;9.77;5.72;;;6.30;99.90;;;;;;5052019;28;20713;-48
2022/04/27 05:55:19;;;;;;;10.65;5.32;;;6.30;99.90;;;;;;5047948;28;20034;-51
2022/04/27 05:57:45;;;;;;;9.02;6.00;;;6.40;99.90;;;;;;5033500;28;20026;-54
2022/04/27 06:00:12;;;;;;;10.40;4.68;;;6.40;99.90;;;;;;5033353;28;20036;-51
2022/04/27 06:02:38;;;;;;;14.05;5.80;;;6.50;99.90;;;;;;5033457;28;20394;-49
2022/04/27 06:05:05;;;;;;;11.88;5.53;;;6.60;99.90;;;;;;5037781;28;20028;-53
2022/04/27 06:07:31;;;;;;;7.60;5.22;;;6.70;99.90;;;;;;5042379;28;20024;-49
2022/04/27 06:09:56;;;;;;;12.00;5.80;;;6.80;99.90;;;;;;5050416;28;20025;-54
2022/04/27 06:12:25;;;;;;;11.27;4.90;;;6.90;99.90;;;;;;5032992;28;20029;-52
2022/04/27 06:14:50;;;;;;;8.18;5.07;;;6.90;99.90;;;;;;5047744;28;20032;-50
2022/04/27 06:17:17;;;;;;;6.85;5.03;;;6.90;99.90;;;;;;5047998;28;20485;-51
2022/04/27 06:19:43;;;;;;;10.27;5.53;;;7.00;99.90;;;;;;5032278;28;20029;-52
2022/04/27 06:22:08;;;;;;;10.23;4.80;;;7.10;99.90;;;;;;5032554;28;20026;-53
2022/04/27 06:24:34;;;;;;;9.27;4.97;;;7.20;99.90;;;;;;5043870;28;20029;-52
2022/04/27 06:26:59;;;;;;;7.18;4.80;;;7.40;99.90;;;;;;5047804;28;20029;-52
2022/04/27 06:29:25;;;;;;;11.48;5.13;;;7.50;99.90;;;;;;5032684;28;20022;-50
2022/04/27 06:31:50;;;;;;;11.70;5.00;;;7.60;99.90;;;;;;5014540;28;20022;-49
2022/04/27 06:34:16;;;;;;;5.85;4.40;;;7.80;99.90;;;;;;5032549;28;20025;-52
2022/04/27 06:36:42;;;;;;;7.63;4.38;;;7.90;99.90;;;;;;5051681;28;20029;-49
2022/04/27 06:39:12;;;;;;;8.68;4.75;;;8.00;99.90;;;;;;5052441;28;20056;-52
2022/04/27 06:41:38;;;;;;;6.22;3.85;;;8.10;99.90;;;;;;5051652;28;20040;-51
2022/04/27 06:44:03;;;;;;;6.03;3.75;;;8.30;99.90;;;;;;5051696;28;20033;-52
2022/04/27 06:46:29;;;;;;;5.30;3.88;;;8.40;99.90;;;;;;5034509;28;20033;-52
2022/04/27 06:48:55;;;;;;;8.40;4.78;;;8.40;99.90;;;;;;5031993;28;20040;-50
2022/04/27 06:51:21;;;;;;;6.90;4.68;;;8.50;99.90;;;;;;5032204;28;20049;-50
2022/04/27 06:53:47;;;;;;;7.32;4.13;;;8.70;99.90;;;;;;5047534;28;20048;-50
2022/04/27 06:56:16;;;;;;;8.90;4.40;;;8.80;99.90;;;;;;5041809;28;20586;-52
2022/04/27 06:58:41;;;;;;;9.95;4.38;;;8.90;99.90;;;;;;5027584;28;20122;-50
2022/04/27 07:01:07;;;;;;;8.65;4.03;;;9.00;99.90;;;;;;5037314;28;20460;-52
2022/04/27 07:03:33;;;;;;;8.35;4.22;;;8.90;99.90;;;;;;5050464;28;20033;-53
2022/04/27 07:06:00;;;;;;;13.68;3.80;;;9.00;99.90;;;;;;5051985;28;20361;-47
2022/04/27 07:08:26;;;;;;;5.90;4.10;;;9.10;99.90;;;;;;5051888;28;20024;-54
2022/04/27 07:10:52;;;;;;;7.75;4.25;;;9.20;99.90;;;;;;5051606;28;20033;-51
2022/04/27 07:13:18;;;;;;;8.43;3.78;;;9.10;99.90;;;;;;5051531;28;20155;-50
2022/04/27 07:15:43;;;;;;;8.75;3.65;;;9.20;99.90;;;;;;5051648;28;20100;-49
2022/04/27 07:18:10;;;;;;;6.60;4.07;;;9.40;99.90;;;;;;5051284;28;20037;-51
2022/04/27 07:20:35;;;;;;;11.43;4.30;;;9.40;99.90;;;;;;5051407;28;20021;-53
2022/04/27 07:23:01;;;;;;;6.78;3.67;;;9.60;99.90;;;;;;5051330;28;20029;-51
2022/04/27 07:25:26;;;;;;;8.48;3.45;;;9.60;99.90;;;;;;5051194;28;20035;-50
2022/04/27 07:27:52;;;;;;;7.97;2.95;;;9.80;99.90;;;;;;5051485;28;20175;-52
2022/04/27 07:30:18;;;;;;;9.25;4.25;;;9.80;99.90;;;;;;5051505;28;20095;-51
2022/04/27 07:32:45;;;;;;;9.68;3.75;;;9.80;99.90;;;;;;5034690;28;20033;-56
2022/04/27 07:35:11;;;;;;;9.60;3.88;;;9.80;99.90;;;;;;5031336;28;20151;-51
2022/04/27 07:37:37;;;;;;;4.95;3.42;;;9.90;99.90;;;;;;5046481;28;20049;-49
2022/04/27 07:40:06;;;;;;;6.97;3.05;;;9.90;99.90;;;;;;5031156;28;20107;-53
2022/04/27 07:42:32;;;;;;;9.45;3.15;;;9.80;99.90;;;;;;5030914;28;20084;-54
2022/04/27 07:44:58;;;;;;;3.75;2.80;;;10.00;99.90;;;;;;5045955;28;20029;-52
2022/04/27 07:47:23;;;;;;;12.07;3.85;;;10.20;99.90;;;;;;5030805;28;20652;-52
2022/04/27 07:49:49;;;;;;;7.38;3.47;;;10.30;99.90;;;;;;5031164;28;20412;-50
2022/04/27 07:52:14;;;;;;;5.20;2.83;;;10.40;99.90;;;;;;5031472;28;20049;-50
2022/04/27 07:54:42;;;;;;;5.80;2.90;;;10.50;99.90;;;;;;5031233;28;20048;-54
2022/04/27 07:57:08;;;;;;;5.60;3.15;;;10.60;99.90;;;;;;5018345;28;20441;-50
2022/04/27 07:59:33;;;;;;;6.13;2.88;;;10.70;99.90;;;;;;5031594;28;20033;-54
2022/04/27 08:01:59;;;;;;;6.85;2.88;;;10.80;99.90;;;;;;5030456;28;20104;-52
2022/04/27 08:04:24;;;;;;;3.42;2.28;;;10.90;99.90;;;;;;5030690;28;20596;-51
2022/04/27 08:06:50;;;;;;;5.47;2.90;;;11.30;99.90;;;;;;5045781;28;20030;-53
2022/04/27 08:09:16;;;;;;;5.28;2.55;;;11.50;99.90;;;;;;5030775;28;20029;-54
2022/04/27 08:11:42;;;;;;;8.93;3.70;;;11.60;99.90;;;;;;5017756;28;20092;-51
2022/04/27 08:14:08;;;;;;;3.35;2.78;;;11.50;99.90;;;;;;5017551;28;20056;-52
2022/04/27 08:16:34;;;;;;;6.93;3.17;;;11.50;99.90;;;;;;5039270;28;20650;-52
2022/04/27 08:18:59;;;;;;;8.02;3.00;;;11.70;99.90;;;;;;5050469;28;20112;-49
2022/04/27 08:21:27;;;;;;;4.43;2.58;;;12.10;99.90;;;;;;5028384;28;20022;-50
2022/04/27 08:23:53;;;;;;;5.85;2.60;;;12.60;99.90;;;;;;5012391;28;20029;-51
2022/04/27 08:26:19;;;;;;;2.72;2.00;;;12.90;99.90;;;;;;5030427;28;20029;-52
2022/04/27 08:28:48;;;;;;;4.90;2.70;;;13.20;99.90;;;;;;5030513;28;20385;-54
2022/04/27 08:31:14;;;;;;;4.07;2.47;;;13.30;99.90;;;;;;5030125;28;20072;-50
2022/04/27 08:33:42;;;;;;;8.32;2.55;;;13.30;99.90;;;;;;5030098;28;20112;-54
2022/04/27 08:36:08;;;;;;;5.90;2.72;;;13.70;99.90;;;;;;5010334;28;20033;-50
2022/04/27 08:38:35;;;;;;;4.63;2.13;;;13.80;99.90;;;;;;5030164;28;20079;-55
2022/04/27 08:41:01;;;;;;;4.15;2.35;;;14.00;99.90;;;;;;5030062;28;20116;-55
2022/04/27 08:43:27;;;;;;;7.00;2.45;;;14.10;99.90;;;;;;5029787;28;20104;-50
2022/04/27 08:45:55;;;;;;;3.75;2.90;;;14.30;99.50;;;;;;5029822;28;20075;-49
2022/04/27 08:48:22;;;;;;;4.00;2.17;;;14.50;99.30;;;;;;5029731;28;20096;-52
2022/04/27 08:50:48;;;;;;;2.78;2.08;;;14.80;98.50;;;;;;5029918;28;20022;-51
2022/04/27 08:53:14;;;;;;;2.45;2.22;;;15.00;98.50;;;;;;5011767;28;20056;-50
2022/04/27 08:55:41;;;;;;;3.38;2.20;;;15.20;99.60;;;;;;5029756;28;20049;-50
2022/04/27 08:58:12;;;;;;;3.80;2.10;;;15.50;97.40;;;;;;5029785;28;20477;-50
2022/04/27 09:00:38;;;;;;;3.33;2.28;;;15.50;96.70;;;;;;5011963;28;20025;-52
2022/04/27 09:03:25;;;;;;;5.03;2.63;;;15.20;94.40;;;;;;5029478;28;20022;-54
2022/04/27 09:06:06;;;;;;;3.80;2.35;;;15.30;95.60;;;;;;5030046;28;20366;-51
2022/04/27 09:08:44;;;;;;;5.35;2.58;;;15.20;98.40;;;;;;5029977;28;20025;-51
2022/04/27 09:11:25;;;;;;;4.57;2.80;;;15.50;98.90;;;;;;5029792;28;20064;-52
2022/04/27 09:13:59;;;;;;;5.07;2.22;;;15.70;96.40;;;;;;5029332;28;20044;-52
2022/04/27 09:22:26;;;;;;;4.13;2.33;;;16.10;96.70;;;;;;5029166;28;20036;-56
2022/04/27 09:24:54;;;;;;;2.95;2.28;;;16.40;94.80;;;;;;5029652;28;20017;-53
2022/04/27 09:27:22;;;;;;;6.63;2.70;;;16.30;93.70;;;;;;5029298;28;20056;-53
2022/04/27 09:29:58;;;;;;;6.07;2.88;;;16.30;94.00;;;;;;5029451;28;20025;-54
2022/04/27 09:32:24;;;;;;;4.40;3.00;;;16.40;95.00;;;;;;5029154;28;20041;-54
2022/04/27 09:34:50;;;;;;;6.10;3.00;;;16.60;94.10;;;;;;5029262;28;20028;-51
2022/04/27 09:37:20;;;;;;;3.80;2.83;;;16.30;91.90;;;;;;5029615;28;20022;-51
2022/04/27 09:40:07;;;;;;;3.90;2.10;;;16.30;93.90;;;;;;5029509;28;20535;-52
2022/04/27 09:42:36;;;;;;;5.55;3.10;;;16.10;93.40;;;;;;5028850;28;20059;-53
2022/04/27 09:45:23;;;;;;;7.45;2.95;;;16.10;93.10;;;;;;5011853;28;20029;-51
2022/04/27 09:47:53;;;;;;;7.65;3.08;;;16.40;93.80;;;;;;5029839;28;20029;-56
2022/04/27 09:50:20;;;;;;;4.90;2.95;;;16.30;92.60;;;;;;5029454;28;20040;-56
2022/04/27 09:52:47;;;;;;;3.80;3.08;;;16.00;92.90;;;;;;5011242;28;20029;-56
2022/04/27 09:55:12;;;;;;;3.72;2.85;;;15.90;94.50;;;;;;5029203;28;20022;-52
2022/04/27 09:57:40;;;;;;;4.05;2.60;;;15.60;92.90;;;;;;5029471;28;20617;-52
2022/04/27 10:00:07;;;;;;;4.90;3.50;;;15.20;93.20;;;;;;5029151;28;20033;-51
2022/04/27 10:02:34;;;;;;;6.45;2.90;;;14.90;92.80;;;;;;5028822;28;20524;-53
2022/04/27 10:05:01;;;;;;;5.13;2.90;;;14.80;93.70;;;;;;5011549;28;20021;-50
2022/04/27 10:07:31;;;;;;;4.75;3.22;;;14.60;94.30;;;;;;5028864;28;20026;-50
2022/04/27 10:09:58;;;;;;;3.88;2.90;;;15.00;96.40;;;;;;5011523;28;20567;-50
2022/04/27 10:12:23;;;;;;;5.40;3.30;;;15.50;95.40;;;;;;5028774;28;20666;-52
2022/04/27 10:14:49;;;;;;;4.65;3.40;;;15.90;94.80;;;;;;5028727;28;20022;-51
2022/04/27 10:17:15;;;;;;;6.07;3.33;;;16.20;93.00;;;;;;5029086;28;20025;-52
2022/04/27 10:19:48;;;;;;;4.65;3.25;;;15.90;92.30;;;;;;5028516;28;20041;-53
2022/04/27 10:22:24;;;;;;;5.50;2.95;;;15.80;94.10;;;;;;5011169;28;20022;-53
2022/04/27 10:24:50;;;;;;;4.13;3.08;;;15.90;93.40;;;;;;5034538;28;20469;-52
2022/04/27 10:27:20;;;;;;;5.57;3.50;;;16.20;94.60;;;;;;5017136;28;20057;-51
2022/04/27 10:29:53;;;;;;;5.38;4.20;;;16.50;94.40;;;;;;5043862;28;20100;-50
2022/04/27 10:32:41;;;;;;;4.60;3.33;;;16.50;90.90;;;;;;5028606;28;20592;-51
2022/04/27 10:35:19;;;;;;;3.03;2.72;;;16.20;91.20;;;;;;5031355;28;20150;-53
2022/04/27 10:37:58;;;;;;;4.10;2.85;;;16.20;92.60;;;;;;5041201;28;20018;-49
2022/04/27 10:40:31;;;;;;;3.65;3.08;;;16.40;92.10;;;;;;5036136;28;20029;-54
2022/04/27 10:43:06;;;;;;;4.80;3.03;;;16.50;93.50;;;;;;5051569;28;20456;-52
2022/04/27 10:45:33;;;;;;;3.07;2.43;;;16.40;91.30;;;;;;5034357;28;20156;-50
2022/04/27 10:47:59;;;;;;;5.32;3.38;;;16.50;89.80;;;;;;5032211;28;20022;-51
2022/04/27 10:50:29;;;;;;;3.22;2.33;;;16.50;90.10;;;;;;5030733;28;20021;-50
2022/04/27 10:52:55;;;;;;;3.40;2.10;;;16.80;91.80;;;;;;5045486;28;20040;-55
2022/04/27 10:55:41;;;;;;;3.08;2.70;;;16.80;90.40;;;;;;5052195;28;20017;-55
2022/04/27 10:58:34;;;;;;;3.60;3.10;;;16.20;89.90;;;;;;5051635;28;20029;-50
2022/04/27 11:01:03;;;;;;;4.78;2.42;;;16.00;90.00;;;;;;5051972;28;20021;-49
2022/04/27 11:03:30;;;;;;;7.05;2.58;;;15.60;90.00;;;;;;5051629;28;20091;-54
2022/04/27 11:06:00;;;;;;;6.97;3.40;;;15.10;90.60;;;;;;5052204;28;20515;-50
2022/04/27 11:08:45;;;;;;;5.10;3.03;;;15.00;90.20;;;;;;5034026;28;20037;-52
2022/04/27 11:11:10;;;;;;;4.20;2.70;;;14.90;90.90;;;;;;5051488;28;20032;-53
2022/04/27 11:13:37;;;;;;;4.05;2.28;;;15.00;92.20;;;;;;5033491;28;20013;-50
2022/04/27 11:16:13;;;;;;;4.85;2.95;;;15.30;94.20;;;;;;5051655;28;20492;-52
2022/04/27 11:18:49;;;;;;;6.95;2.90;;;15.70;92.20;;;;;;5051774;28;20050;-50
2022/04/27 11:21:18;;;;;;;4.65;2.92;;;16.00;91.10;;;;;;5051152;28;20521;-51
2022/04/27 11:23:44;;;;;;;3.50;2.83;;;16.10;90.50;;;;;;5051588;28;20511;-50
2022/04/27 11:26:10;;;;;;;3.42;2.75;;;16.40;90.40;;;;;;5051506;28;20485;-51
2022/04/27 11:28:39;;;;;;;4.68;3.03;;;16.30;86.40;;;;;;5051178;28;20040;-52
2022/04/27 11:31:05;;;;;;;6.47;3.38;;;16.40;90.70;;;;;;5051631;28;20021;-48
2022/04/27 11:33:31;;;;;;;4.25;3.00;;;16.40;86.60;;;;;;5051000;28;20135;-49
2022/04/27 11:35:57;;;;;;;4.78;2.97;;;16.20;90.30;;;;;;5051383;28;20060;-52
2022/04/27 11:38:34;;;;;;;3.88;3.20;;;16.30;88.70;;;;;;5051325;28;20037;-49
2022/04/27 11:40:59;;;;;;;4.82;3.40;;;16.50;91.40;;;;;;5051231;28;20017;-53
2022/04/27 11:43:31;;;;;;;9.73;3.28;;;16.60;87.00;;;;;;5050893;28;20507;-49
2022/04/27 11:45:57;;;;;;;14.95;4.80;;;16.50;86.50;;;;;;5051645;28;20544;-51
2022/04/27 11:48:27;;;;;;;3.42;3.13;;;16.20;86.00;;;;;;5050945;28;20025;-52
2022/04/27 11:50:55;;;;;;;4.13;2.40;;;16.20;88.70;;;;;;5050955;28;20067;-54
2022/04/27 11:53:21;;;;;;;5.40;3.15;;;16.20;86.20;;;;;;5050668;28;20027;-52
2022/04/27 11:55:51;;;;;;;3.25;2.95;;;15.90;87.30;;;;;;5050983;28;20104;-52
2022/04/27 11:58:25;;;;;;;4.57;3.15;;;15.90;88.70;;;;;;5050809;28;20489;-50
2022/04/27 12:00:56;;;;;;;5.65;3.67;;;15.80;86.40;;;;;;5040882;28;20025;-53
2022/04/27 12:03:23;;;;;;;3.15;2.85;;;15.70;88.80;;;;;;5030556;28;20036;-52
2022/04/27 12:05:53;;;;;;;5.40;3.10;;;15.90;90.80;;;;;;5032403;28;20034;-49
2022/04/27 12:08:26;;;;;;;3.17;2.60;;;16.20;91.20;;;;;;5048750;28;20032;-51
2022/04/27 12:10:52;;;;;;;4.07;3.17;;;16.40;90.60;;;;;;5011171;28;20034;-49
2022/04/27 12:13:20;;;;;;;3.60;2.60;;;16.60;90.60;;;;;;5013041;28;20465;-51
2022/04/27 12:15:55;;;;;;;5.78;3.53;;;16.60;88.10;;;;;;5030728;28;20027;-49
2022/04/27 12:18:25;;;;;;;4.72;3.70;;;16.50;87.30;;;;;;5031855;28;20153;-49
2022/04/27 12:20:52;;;;;;;8.00;3.58;;;16.40;87.90;;;;;;5036186;28;20033;-52
2022/04/27 12:23:25;;;;;;;3.60;2.88;;;16.40;86.50;;;;;;5050408;28;20032;-48
2022/04/27 12:25:55;;;;;;;9.00;4.28;;;16.30;86.30;;;;;;5048501;28;20033;-52
2022/04/27 12:28:25;;;;;;;4.72;2.97;;;16.30;85.20;;;;;;5050180;28;20572;-50
2022/04/27 12:30:54;;;;;;;3.70;3.40;;;16.30;88.20;;;;;;5049224;28;20025;-49
2022/04/27 12:33:22;;;;;;;4.35;3.67;;;16.40;85.90;;;;;;5043226;28;20037;-54
2022/04/27 12:39:20;;;;;;;4.03;2.97;;;16.90;86.00;;;;;;5035659;28;20082;-51
2022/04/27 12:41:48;;;;;;;6.13;3.10;;;17.00;83.80;;;;;;4948266;29;20110;-51
2022/04/27 12:44:17;;;;;;;3.97;2.97;;;17.00;85.30;;;;;;4937153;29;20043;-50
2022/04/27 12:47:00;;;;;;;4.10;3.10;;;17.20;82.30;;;;;;4981934;28;20034;-49
2022/04/27 12:49:34;;;;;;;3.90;3.50;;;17.30;83.40;;;;;;5045879;28;20496;-50
2022/04/27 12:52:27;;;;;;;5.90;3.60;;;17.30;82.80;;;;;;5049223;28;20028;-52
2022/04/27 12:55:07;;;;;;;6.13;3.40;;;17.60;85.30;;;;;;5046670;28;20025;-51
2022/04/27 12:57:50;;;;;;;7.35;3.58;;;17.80;80.90;;;;;;5049058;28;20389;-49
2022/04/27 13:00:21;;;;;;;3.88;2.92;;;17.50;81.60;;;;;;5007356;28;20516;-51
2022/04/27 13:02:47;;;;;;;5.43;3.10;;;17.50;81.50;;;;;;5047146;28;20489;-52
2022/04/27 13:05:13;;;;;;;4.00;3.13;;;17.60;85.60;;;;;;5012195;28;20386;-52
2022/04/27 13:07:40;;;;;;;4.40;3.75;;;17.50;80.10;;;;;;5044978;28;20163;-50
2022/04/27 13:12:51;;;;;;;3.58;3.05;;;17.30;80.20;;;;;;5037107;28;20511;-51
2022/04/27 13:15:17;;;;;;;3.15;2.85;;;17.40;80.00;;;;;;5049426;28;20033;-54